createdAt,value
2019-02-26T00:00:58.653Z,81.15
2019-02-26T00:01:55.128Z,81.25
2019-02-26T00:02:56.287Z,81.25
2019-02-26T00:03:53.762Z,81.06
2019-02-26T00:04:54.650Z,81.25
2019-02-26T00:05:54.858Z,81.44
2019-02-26T00:07:20.802Z,81.63
2019-02-26T00:07:56.127Z,81.92
2019-02-26T00:08:56.592Z,81.72
2019-02-26T00:09:55.712Z,81.82
2019-02-26T00:10:57.043Z,81.72
2019-02-26T00:12:21.992Z,82.20
2019-02-26T00:12:54.758Z,81.72
2019-02-26T00:13:55.113Z,81.63
2019-02-26T00:14:56.923Z,81.72
2019-02-26T00:15:55.261Z,81.63
2019-02-26T00:16:58.760Z,81.34
2019-02-26T00:17:55.274Z,81.34
2019-02-26T00:18:56.253Z,81.25
2019-02-26T00:19:55.760Z,81.25
2019-02-26T00:20:56.664Z,80.96
2019-02-26T00:21:59.759Z,81.15
2019-02-26T00:22:57.620Z,81.15
2019-02-26T00:23:56.260Z,81.44
2019-02-26T00:24:56.262Z,81.72
2019-02-26T00:25:56.262Z,82.10
2019-02-26T00:26:58.509Z,82.01
2019-02-26T00:27:59.762Z,81.82
2019-02-26T00:28:57.186Z,81.82
2019-02-26T00:29:56.759Z,81.72
2019-02-26T00:30:59.353Z,82.01
2019-02-26T00:31:57.804Z,81.82
2019-02-26T00:33:02.869Z,81.53
2019-02-26T00:33:57.265Z,81.34
2019-02-26T00:34:59.627Z,81.34
2019-02-26T00:35:57.758Z,80.96
2019-02-26T00:36:59.470Z,80.87
2019-02-26T00:37:57.773Z,80.96
2019-02-26T00:39:02.899Z,81.53
2019-02-26T00:40:20.154Z,81.63
2019-02-26T00:41:20.717Z,82.39
2019-02-26T00:42:21.475Z,82.48
2019-02-26T00:43:23.303Z,82.29
2019-02-26T00:44:04.140Z,82.57
2019-02-26T00:45:22.203Z,82.67
2019-02-26T00:46:00.654Z,82.57
2019-02-26T00:46:59.726Z,82.01
2019-02-26T00:47:59.257Z,81.82
2019-02-26T00:49:25.701Z,81.92
2019-02-26T00:49:59.256Z,81.53
2019-02-26T00:51:01.058Z,81.06
2019-02-26T00:52:00.723Z,81.25
2019-02-26T00:53:01.557Z,81.25
2019-02-26T00:54:00.208Z,81.53
2019-02-26T00:55:04.951Z,81.72
2019-02-26T00:56:22.863Z,81.53
2019-02-26T00:57:03.365Z,82.01
2019-02-26T00:58:01.071Z,81.92
2019-02-26T00:59:00.255Z,82.57
2019-02-26T01:00:02.782Z,82.95
2019-02-26T01:01:08.101Z,82.95
2019-02-26T01:02:00.757Z,83.14
2019-02-26T01:03:21.754Z,82.76
2019-02-26T01:04:00.754Z,82.20
2019-02-26T01:06:35.975Z,82.57
2019-02-26T01:07:32.483Z,82.29
2019-02-26T01:08:32.488Z,82.48
2019-02-26T01:09:34.009Z,82.29
2019-02-26T01:10:34.483Z,82.48
2019-02-26T01:11:32.983Z,82.67
2019-02-26T01:12:37.612Z,82.76
2019-02-26T01:13:33.484Z,82.48
2019-02-26T01:14:33.491Z,82.86
2019-02-26T01:15:55.476Z,82.57
2019-02-26T01:16:33.481Z,82.29
2019-02-26T01:17:35.655Z,82.63
2019-02-26T01:18:36.982Z,82.48
2019-02-26T01:19:34.738Z,82.48
2019-02-26T01:20:57.115Z,82.10
2019-02-26T01:21:48.482Z,82.29
2019-02-26T01:22:37.839Z,82.01
2019-02-26T01:23:37.982Z,82.29
2019-02-26T01:24:34.483Z,82.01
2019-02-26T01:25:55.981Z,82.10
2019-02-26T01:26:34.981Z,82.76
2019-02-26T01:27:57.981Z,82.76
2019-02-26T01:28:34.990Z,82.86
2019-02-26T01:29:38.987Z,82.76
2019-02-26T01:30:36.221Z,82.48
2019-02-26T01:31:36.916Z,82.20
2019-02-26T01:32:35.481Z,82.29
2019-02-26T01:33:57.390Z,81.92
2019-02-26T01:34:37.790Z,82.10
2019-02-26T01:35:38.980Z,82.10
2019-02-26T01:36:35.980Z,82.48
2019-02-26T01:37:59.842Z,82.63
2019-02-26T01:38:39.481Z,82.15
2019-02-26T01:39:38.417Z,82.91
2019-02-26T01:41:01.480Z,83.01
2019-02-26T01:41:36.979Z,83.20
2019-02-26T01:42:36.979Z,83.10
2019-02-26T01:43:36.980Z,83.29
2019-02-26T01:44:38.056Z,82.53
2019-02-26T01:45:37.480Z,82.53
2019-02-26T01:46:41.481Z,83.10
2019-02-26T01:47:37.481Z,83.05
2019-02-26T01:48:39.534Z,82.20
2019-02-26T01:49:39.679Z,82.57
2019-02-26T01:50:40.506Z,82.20
2019-02-26T01:51:37.978Z,82.57
2019-02-26T01:52:41.478Z,82.57
2019-02-26T01:54:01.510Z,82.39
2019-02-26T01:54:39.610Z,82.48
2019-02-26T01:55:42.103Z,82.20
2019-02-26T01:56:38.481Z,81.92
2019-02-26T01:57:43.591Z,82.39
2019-02-26T01:58:38.976Z,82.15
2019-02-26T01:59:38.977Z,82.44
2019-02-26T02:00:40.814Z,82.20
2019-02-26T02:01:42.006Z,82.34
2019-02-26T02:02:39.475Z,82.63
2019-02-26T02:03:44.717Z,82.91
2019-02-26T02:04:41.269Z,83.01
2019-02-26T02:05:39.996Z,82.63
2019-02-26T02:06:41.348Z,83.10
2019-02-26T02:07:39.976Z,82.91
2019-02-26T02:08:43.396Z,82.91
2019-02-26T02:09:46.541Z,82.39
2019-02-26T02:10:40.476Z,82.57
2019-02-26T02:11:40.809Z,82.44
2019-02-26T02:12:41.526Z,82.72
2019-02-26T02:13:41.437Z,82.72
2019-02-26T02:14:43.873Z,82.91
2019-02-26T02:15:42.267Z,83.29
2019-02-26T02:16:40.976Z,82.72
2019-02-26T02:17:40.976Z,82.95
2019-02-26T02:18:46.018Z,82.63
2019-02-26T02:19:41.480Z,82.34
2019-02-26T02:20:45.475Z,82.44
2019-02-26T02:21:41.475Z,82.06
2019-02-26T02:22:42.568Z,81.96
2019-02-26T02:23:42.548Z,82.53
2019-02-26T02:24:44.458Z,82.82
2019-02-26T02:25:43.323Z,82.06
2019-02-26T02:26:47.667Z,82.91
2019-02-26T02:27:42.474Z,83.29
2019-02-26T02:28:42.480Z,83.48
2019-02-26T02:29:45.712Z,82.91
2019-02-26T02:30:42.974Z,83.01
2019-02-26T02:31:46.474Z,83.20
2019-02-26T02:32:42.978Z,83.39
2019-02-26T02:33:42.980Z,83.29
2019-02-26T02:34:43.476Z,83.29
2019-02-26T02:35:43.473Z,83.10
2019-02-26T02:36:46.978Z,82.72
2019-02-26T02:37:43.495Z,83.10
2019-02-26T02:38:44.931Z,83.29
2019-02-26T02:39:44.964Z,83.39
2019-02-26T02:40:46.236Z,83.58
2019-02-26T02:41:51.360Z,83.10
2019-02-26T02:42:48.395Z,83.10
2019-02-26T02:43:44.473Z,83.29
2019-02-26T02:44:46.766Z,83.39
2019-02-26T02:45:44.492Z,83.29
2019-02-26T02:46:46.562Z,83.39
2019-02-26T02:47:47.981Z,83.58
2019-02-26T02:48:44.979Z,83.86
2019-02-26T02:49:44.975Z,83.48
2019-02-26T02:50:45.472Z,83.95
2019-02-26T02:51:45.473Z,83.48
2019-02-26T02:52:50.896Z,83.58
2019-02-26T02:54:06.470Z,83.10
2019-02-26T02:54:49.011Z,83.01
2019-02-26T02:55:49.500Z,82.63
2019-02-26T02:56:47.432Z,83.01
2019-02-26T02:58:13.099Z,83.01
2019-02-26T02:59:08.910Z,83.29
2019-02-26T02:59:46.470Z,83.20
2019-02-26T03:01:07.475Z,83.39
2019-02-26T03:01:51.321Z,83.01
2019-02-26T03:02:50.038Z,83.29
2019-02-26T03:03:52.952Z,83.01
2019-02-26T03:05:07.968Z,83.39
2019-02-26T03:05:46.977Z,83.20
2019-02-26T03:06:46.969Z,83.29
2019-02-26T03:07:50.748Z,83.39
2019-02-26T03:09:11.832Z,83.58
2019-02-26T03:09:47.469Z,83.95
2019-02-26T03:10:47.470Z,83.67
2019-02-26T03:11:49.651Z,83.29
2019-02-26T03:12:52.160Z,82.91
2019-02-26T03:13:48.496Z,82.72
2019-02-26T03:14:51.470Z,83.01
2019-02-26T03:15:50.053Z,82.25
2019-02-26T03:16:50.805Z,82.15
2019-02-26T03:17:51.427Z,82.53
2019-02-26T03:18:48.470Z,82.91
2019-02-26T03:19:52.472Z,83.01
2019-02-26T03:20:48.473Z,83.29
2019-02-26T03:21:49.724Z,83.29
2019-02-26T03:22:49.180Z,83.10
2019-02-26T03:23:48.970Z,83.20
2019-02-26T03:24:51.242Z,83.01
2019-02-26T03:25:54.904Z,83.10
2019-02-26T03:26:49.467Z,82.91
2019-02-26T03:27:49.468Z,82.72
2019-02-26T03:28:51.491Z,82.25
2019-02-26T03:29:52.400Z,82.53
2019-02-26T03:30:53.971Z,82.06
2019-02-26T03:31:54.809Z,81.96
2019-02-26T03:32:55.699Z,82.82
2019-02-26T03:33:50.467Z,82.91
2019-02-26T03:34:49.698Z,83.01
2019-02-26T03:35:53.963Z,83.01
2019-02-26T03:36:50.465Z,82.63
2019-02-26T03:37:52.395Z,82.15
2019-02-26T03:38:53.378Z,82.53
2019-02-26T03:39:52.649Z,82.06
2019-02-26T03:40:58.144Z,82.44
2019-02-26T03:41:51.561Z,82.15
2019-02-26T03:42:51.466Z,81.77
2019-02-26T03:43:51.464Z,82.25
2019-02-26T03:44:51.463Z,82.91
2019-02-26T03:45:51.465Z,82.72
2019-02-26T03:46:54.965Z,82.91
2019-02-26T03:47:51.970Z,83.58
2019-02-26T03:48:51.970Z,82.91
2019-02-26T03:49:51.968Z,83.01
2019-02-26T03:50:52.464Z,82.63
2019-02-26T03:52:16.988Z,82.25
2019-02-26T03:52:52.467Z,82.15
2019-02-26T03:53:52.471Z,82.15
2019-02-26T03:54:52.966Z,82.53
2019-02-26T03:55:52.978Z,82.15
2019-02-26T03:56:52.964Z,82.34
2019-02-26T03:57:59.130Z,82.91
2019-02-26T03:58:57.008Z,82.91
2019-02-26T03:59:53.473Z,83.10
2019-02-26T04:00:53.464Z,83.01
2019-02-26T04:01:53.463Z,82.91
2019-02-26T04:02:53.962Z,82.91
2019-02-26T04:03:57.937Z,83.29
2019-02-26T04:04:56.888Z,83.10
2019-02-26T04:05:57.186Z,83.20
2019-02-26T04:06:55.845Z,83.39
2019-02-26T04:07:55.720Z,83.86
2019-02-26T04:09:00.396Z,84.05
2019-02-26T04:09:55.921Z,84.14
2019-02-26T04:10:55.976Z,84.05
2019-02-26T04:11:55.418Z,83.58
2019-02-26T04:12:56.176Z,84.23
2019-02-26T04:13:56.693Z,83.58
2019-02-26T04:14:59.462Z,83.39
2019-02-26T04:15:57.124Z,83.39
2019-02-26T04:16:57.987Z,82.82
2019-02-26T04:17:55.462Z,83.10
2019-02-26T04:18:55.966Z,82.82
2019-02-26T04:19:55.971Z,82.06
2019-02-26T04:21:03.188Z,82.44
2019-02-26T04:21:55.429Z,82.63
2019-02-26T04:22:57.052Z,82.15
2019-02-26T04:23:58.573Z,83.01
2019-02-26T04:25:00.923Z,82.72
2019-02-26T04:26:01.760Z,83.10
2019-02-26T04:26:56.482Z,83.20
2019-02-26T04:27:59.002Z,84.05
2019-02-26T04:29:17.960Z,83.76
2019-02-26T04:29:56.964Z,83.86
2019-02-26T04:30:56.960Z,84.05
2019-02-26T04:32:00.462Z,83.20
2019-02-26T04:32:57.459Z,83.39
2019-02-26T04:33:59.566Z,83.58
2019-02-26T04:34:59.636Z,83.86
2019-02-26T04:36:20.309Z,83.76
2019-02-26T04:37:04.138Z,83.76
2019-02-26T04:37:59.058Z,83.58
2019-02-26T04:38:59.400Z,83.29
2019-02-26T04:40:21.459Z,83.48
2019-02-26T04:41:00.443Z,83.39
2019-02-26T04:41:58.459Z,83.29
2019-02-26T04:43:02.659Z,83.48
2019-02-26T04:44:01.305Z,83.29
2019-02-26T04:45:19.963Z,83.29
2019-02-26T04:45:59.399Z,83.39
2019-02-26T04:47:00.169Z,83.20
2019-02-26T04:48:01.958Z,83.82
2019-02-26T04:48:59.456Z,84.39
2019-02-26T04:50:03.146Z,84.42
2019-02-26T04:50:59.457Z,84.29
2019-02-26T04:51:59.454Z,84.48
2019-02-26T04:53:05.889Z,85.24
2019-02-26T04:54:01.991Z,85.19
2019-02-26T04:54:59.957Z,84.67
2019-02-26T04:56:02.855Z,84.33
2019-02-26T04:57:00.455Z,85.47
2019-02-26T04:58:03.959Z,85.24
2019-02-26T04:59:03.344Z,85.24
2019-02-26T05:00:01.230Z,85.28
2019-02-26T05:01:00.051Z,84.52
2019-02-26T05:02:03.027Z,84.33
2019-02-26T05:03:00.957Z,83.67
2019-02-26T05:04:03.963Z,83.67
2019-02-26T05:05:01.889Z,83.86
2019-02-26T05:06:03.004Z,83.67
2019-02-26T05:07:04.381Z,84.23
2019-02-26T05:08:04.061Z,84.05
2019-02-26T05:09:27.415Z,84.33
2019-02-26T05:10:02.538Z,84.33
2019-02-26T05:11:01.955Z,84.05
2019-02-26T05:12:01.954Z,83.76
2019-02-26T05:13:03.961Z,83.20
2019-02-26T05:14:02.453Z,83.29
2019-02-26T05:16:40.323Z,83.15
2019-02-26T05:17:38.160Z,83.72
2019-02-26T05:18:38.635Z,83.86
2019-02-26T05:19:42.318Z,84.01
2019-02-26T05:20:43.073Z,84.48
2019-02-26T05:21:39.581Z,84.48
2019-02-26T05:22:38.629Z,84.39
2019-02-26T05:24:00.162Z,84.42
2019-02-26T05:25:00.235Z,84.20
2019-02-26T05:25:44.878Z,84.14
2019-02-26T05:26:39.128Z,84.10
2019-02-26T05:27:42.103Z,84.01
2019-02-26T05:28:43.631Z,84.58
2019-02-26T05:30:00.629Z,84.58
2019-02-26T05:31:13.863Z,84.01
2019-02-26T05:31:40.315Z,84.20
2019-02-26T05:32:40.128Z,84.20
2019-02-26T05:33:40.127Z,84.29
2019-02-26T05:34:42.797Z,84.10
2019-02-26T05:35:40.890Z,84.20
2019-02-26T05:36:46.237Z,84.39
2019-02-26T05:37:41.089Z,84.01
2019-02-26T05:38:40.627Z,84.48
2019-02-26T05:39:43.230Z,84.48
2019-02-26T05:40:42.860Z,84.58
2019-02-26T05:41:41.133Z,84.20
2019-02-26T05:42:45.134Z,83.91
2019-02-26T05:43:41.127Z,84.10
2019-02-26T05:44:41.627Z,84.29
2019-02-26T05:45:41.633Z,84.20
2019-02-26T05:46:41.669Z,84.10
2019-02-26T05:47:43.150Z,84.39
2019-02-26T05:48:45.755Z,83.82
2019-02-26T05:49:45.367Z,83.82
2019-02-26T05:50:44.802Z,83.15
2019-02-26T05:51:42.129Z,83.15
2019-02-26T05:52:42.139Z,83.25
2019-02-26T05:54:08.211Z,83.15
2019-02-26T05:54:44.628Z,83.34
2019-02-26T05:55:47.075Z,82.87
2019-02-26T05:56:43.579Z,83.34
2019-02-26T05:57:42.624Z,83.25
2019-02-26T05:58:46.348Z,83.53
2019-02-26T05:59:46.127Z,84.58
2019-02-26T06:00:43.124Z,84.67
2019-02-26T06:01:43.804Z,84.39
2019-02-26T06:02:47.304Z,84.48
2019-02-26T06:03:46.123Z,84.39
2019-02-26T06:04:47.625Z,84.58
2019-02-26T06:05:45.928Z,84.29
2019-02-26T06:06:44.124Z,84.10
2019-02-26T06:07:44.122Z,84.39
2019-02-26T06:08:44.123Z,84.58
2019-02-26T06:09:45.347Z,84.77
2019-02-26T06:10:49.578Z,84.29
2019-02-26T06:11:47.877Z,85.24
2019-02-26T06:13:07.512Z,84.67
2019-02-26T06:14:09.474Z,84.86
2019-02-26T06:14:44.094Z,84.39
2019-02-26T06:16:10.120Z,84.67
2019-02-26T06:16:46.187Z,84.01
2019-02-26T06:17:45.772Z,83.53
2019-02-26T06:18:46.471Z,83.34
2019-02-26T06:19:45.227Z,83.44
2019-02-26T06:20:45.121Z,83.25
2019-02-26T06:21:49.724Z,83.63
2019-02-26T06:22:45.625Z,83.63
2019-02-26T06:23:45.635Z,83.63
2019-02-26T06:24:45.623Z,84.20
2019-02-26T06:25:46.121Z,84.01
2019-02-26T06:26:48.622Z,84.10
2019-02-26T06:28:09.871Z,84.48
2019-02-26T06:28:48.029Z,84.29
2019-02-26T06:30:11.552Z,84.48
2019-02-26T06:30:47.091Z,84.77
2019-02-26T06:31:51.057Z,84.67
2019-02-26T06:33:09.742Z,84.58
2019-02-26T06:34:08.657Z,84.29
2019-02-26T06:35:08.526Z,84.29
2019-02-26T06:36:08.120Z,84.39
2019-02-26T06:36:53.205Z,84.29
2019-02-26T06:37:46.720Z,84.39
2019-02-26T06:38:49.623Z,84.20
2019-02-26T06:39:50.607Z,84.10
2019-02-26T06:40:49.103Z,84.29
2019-02-26T06:41:49.159Z,84.29
2019-02-26T06:42:52.120Z,84.20
2019-02-26T06:43:50.367Z,84.58
2019-02-26T06:44:49.417Z,84.67
2019-02-26T06:46:11.807Z,85.52
2019-02-26T06:46:48.628Z,84.77
2019-02-26T06:48:16.942Z,85.05
2019-02-26T06:48:48.618Z,85.05
2019-02-26T06:50:11.111Z,84.77
2019-02-26T06:50:48.343Z,85.24
2019-02-26T06:52:10.755Z,84.42
2019-02-26T06:52:50.666Z,84.67
2019-02-26T06:53:54.270Z,84.39
2019-02-26T06:55:10.618Z,84.29
2019-02-26T06:56:10.617Z,84.42
2019-02-26T06:56:51.149Z,84.14
2019-02-26T06:57:52.799Z,84.33
2019-02-26T06:59:14.620Z,83.76
2019-02-26T06:59:51.031Z,83.95
2019-02-26T07:00:53.334Z,83.58
2019-02-26T07:01:50.118Z,83.86
2019-02-26T07:02:50.632Z,83.39
2019-02-26T07:03:50.624Z,83.39
2019-02-26T07:04:54.616Z,83.10
2019-02-26T07:05:50.619Z,83.48
2019-02-26T07:06:55.070Z,83.48
2019-02-26T07:07:54.168Z,83.58
2019-02-26T07:08:53.275Z,83.58
2019-02-26T07:09:51.118Z,83.20
2019-02-26T07:10:55.616Z,83.48
2019-02-26T07:11:51.615Z,83.29
2019-02-26T07:12:51.615Z,83.10
2019-02-26T07:13:53.654Z,83.20
2019-02-26T07:16:26.829Z,83.29
2019-02-26T07:17:23.347Z,83.39
2019-02-26T07:18:44.345Z,83.10
2019-02-26T07:19:23.839Z,83.29
2019-02-26T07:23:51.579Z,83.43
2019-02-26T07:24:51.926Z,82.86
2019-02-26T07:25:31.806Z,83.14
2019-02-26T07:26:51.492Z,83.24
2019-02-26T07:27:35.940Z,83.29
2019-02-26T07:28:30.505Z,83.76
2019-02-26T07:29:32.852Z,83.86
2019-02-26T07:32:24.692Z,83.67
2019-02-26T07:34:36.208Z,84.33
2019-02-26T07:35:37.371Z,84.56
2019-02-26T07:36:36.218Z,84.19
2019-02-26T07:39:13.037Z,84.28
2019-02-26T07:40:08.831Z,84.00
2019-02-26T07:41:33.871Z,84.09
2019-02-26T07:42:09.173Z,83.90
2019-02-26T07:43:29.438Z,83.52
2019-02-26T07:44:18.101Z,83.24
2019-02-26T07:45:15.122Z,83.52
2019-02-26T07:48:01.191Z,82.95
2019-02-26T07:48:40.164Z,82.76
2019-02-26T07:49:40.165Z,82.86
2019-02-26T07:50:47.764Z,83.05
2019-02-26T07:51:42.913Z,82.67
2019-02-26T07:52:40.658Z,82.95
2019-02-26T07:53:44.122Z,83.14
2019-02-26T07:56:15.905Z,83.47
2019-02-26T07:57:12.388Z,82.62
2019-02-26T07:58:13.759Z,82.24
2019-02-26T07:59:15.015Z,82.90
2019-02-26T08:00:12.112Z,82.62
2019-02-26T08:01:45.266Z,82.14
2019-02-26T08:02:13.600Z,81.76
2019-02-26T08:03:17.001Z,81.67
2019-02-26T08:04:13.513Z,81.95
2019-02-26T08:05:34.389Z,81.67
2019-02-26T08:06:14.034Z,81.14
2019-02-26T08:07:37.888Z,80.95
2019-02-26T08:09:44.444Z,80.10
2019-02-26T08:12:20.152Z,79.82
2019-02-26T08:13:37.661Z,79.25
2019-02-26T08:14:18.389Z,79.00
2019-02-26T08:15:21.094Z,78.91
2019-02-26T08:16:18.340Z,79.00
2019-02-26T08:17:17.169Z,78.53
2019-02-26T08:18:20.161Z,78.24
2019-02-26T08:19:17.160Z,77.86
2019-02-26T08:22:09.889Z,77.39
2019-02-26T08:22:49.526Z,77.67
2019-02-26T08:23:52.901Z,77.48
2019-02-26T08:24:50.910Z,77.86
2019-02-26T08:27:20.616Z,77.86
2019-02-26T08:28:22.520Z,77.81
2019-02-26T08:29:45.626Z,77.52
2019-02-26T08:30:23.503Z,76.67
2019-02-26T08:31:23.119Z,75.81
2019-02-26T08:32:23.249Z,76.01
2019-02-26T08:33:21.129Z,75.72
2019-02-26T08:34:21.627Z,76.01
2019-02-26T08:35:46.625Z,75.62
2019-02-26T08:36:21.626Z,75.28
2019-02-26T08:37:21.625Z,75.19
2019-02-26T08:38:22.127Z,75.47
2019-02-26T08:39:43.123Z,74.52
2019-02-26T08:40:22.125Z,74.62
2019-02-26T08:41:46.641Z,74.43
2019-02-26T08:42:22.626Z,74.05
2019-02-26T08:43:22.631Z,74.43
2019-02-26T08:44:46.192Z,74.15
2019-02-26T08:45:25.142Z,74.24
2019-02-26T08:46:26.624Z,74.05
2019-02-26T08:47:44.129Z,74.05
2019-02-26T08:48:24.673Z,74.05
2019-02-26T08:49:23.121Z,73.76
2019-02-26T08:50:23.129Z,74.27
2019-02-26T08:51:48.125Z,73.99
2019-02-26T08:52:47.121Z,73.80
2019-02-26T08:53:24.844Z,73.33
2019-02-26T08:54:24.299Z,73.23
2019-02-26T08:55:26.126Z,73.33
2019-02-26T08:56:33.285Z,73.23
2019-02-26T08:59:20.226Z,72.41
2019-02-26T08:59:59.172Z,72.03
2019-02-26T09:01:00.629Z,72.22
2019-02-26T09:03:40.387Z,72.60
2019-02-26T09:04:31.368Z,72.79
2019-02-26T09:05:34.263Z,71.94
2019-02-26T09:06:31.862Z,71.46
2019-02-26T09:07:31.862Z,70.89
2019-02-26T09:08:38.019Z,69.85
2019-02-26T09:09:32.843Z,69.46
2019-02-26T09:10:32.362Z,69.60
2019-02-26T09:11:33.854Z,70.26
2019-02-26T09:12:32.360Z,69.98
2019-02-26T09:13:34.098Z,69.79
2019-02-26T09:14:37.667Z,69.60
2019-02-26T09:15:33.656Z,69.12
2019-02-26T09:16:32.890Z,69.21
2019-02-26T09:17:34.699Z,68.93
2019-02-26T09:18:37.499Z,69.41
2019-02-26T09:21:29.553Z,69.31
2019-02-26T09:22:11.806Z,69.15
2019-02-26T09:23:30.541Z,69.15
2019-02-26T09:24:30.059Z,68.01
2019-02-26T09:25:14.058Z,67.63
2019-02-26T09:26:09.059Z,66.87
2019-02-26T09:27:09.061Z,67.82
2019-02-26T09:29:43.920Z,66.68
2019-02-26T09:30:44.303Z,66.97
2019-02-26T09:31:40.792Z,66.59
2019-02-26T09:32:42.770Z,66.78
2019-02-26T09:33:43.448Z,67.54
2019-02-26T09:34:41.292Z,68.21
2019-02-26T09:36:10.543Z,67.44
2019-02-26T09:36:41.793Z,66.49
2019-02-26T09:37:42.846Z,66.53
2019-02-26T09:38:42.345Z,67.00
2019-02-26T09:39:41.793Z,66.91
2019-02-26T09:40:42.292Z,66.53
2019-02-26T09:41:45.598Z,66.91
2019-02-26T09:42:43.935Z,65.86
2019-02-26T09:43:43.294Z,65.38
2019-02-26T09:44:42.791Z,67.00
2019-02-26T09:45:43.614Z,67.00
2019-02-26T09:46:46.789Z,65.61
2019-02-26T09:47:44.807Z,65.61
2019-02-26T09:48:45.187Z,65.42
2019-02-26T09:49:42.509Z,65.32
2019-02-26T09:50:44.335Z,64.75
2019-02-26T09:51:43.295Z,64.37
2019-02-26T09:52:50.269Z,63.54
2019-02-26T09:53:43.790Z,63.23
2019-02-26T09:54:46.394Z,63.32
2019-02-26T09:55:43.802Z,63.26
2019-02-26T09:58:21.066Z,63.35
2019-02-26T09:59:15.530Z,63.45
2019-02-26T10:00:22.073Z,62.78
2019-02-26T10:01:37.855Z,63.26
2019-02-26T10:02:17.365Z,63.35
2019-02-26T10:03:16.034Z,63.64
2019-02-26T10:04:21.969Z,63.07
2019-02-26T10:07:09.876Z,62.68
2019-02-26T10:07:47.776Z,63.00
2019-02-26T10:08:49.090Z,62.15
2019-02-26T10:10:14.015Z,62.24
2019-02-26T10:10:48.276Z,62.72
2019-02-26T10:11:49.316Z,62.34
2019-02-26T10:12:48.278Z,61.38
2019-02-26T10:13:49.399Z,61.86
2019-02-26T10:14:52.407Z,61.22
2019-02-26T10:15:48.786Z,60.55
2019-02-26T10:16:50.100Z,60.36
2019-02-26T10:17:49.278Z,60.36
2019-02-26T10:19:12.487Z,60.27
2019-02-26T10:19:54.340Z,59.79
2019-02-26T10:20:52.134Z,59.99
2019-02-26T10:22:13.336Z,60.02
2019-02-26T10:22:49.778Z,60.11
2019-02-26T10:24:10.778Z,59.82
2019-02-26T10:24:49.780Z,59.92
2019-02-26T10:25:57.489Z,59.09
2019-02-26T10:26:50.278Z,57.94
2019-02-26T10:27:51.219Z,58.04
2019-02-26T10:28:53.553Z,57.85
2019-02-26T10:29:51.714Z,58.14
2019-02-26T10:32:47.091Z,57.02
2019-02-26T10:33:48.934Z,56.63
2019-02-26T10:34:32.505Z,57.02
2019-02-26T10:35:49.518Z,56.54
2019-02-26T10:36:34.499Z,57.21
2019-02-26T10:37:46.940Z,56.45
2019-02-26T10:38:29.602Z,56.35
2019-02-26T10:39:49.818Z,55.58
2019-02-26T10:40:34.604Z,55.80
2019-02-26T10:41:51.984Z,55.52
2019-02-26T10:42:27.484Z,54.85
2019-02-26T10:43:27.484Z,54.56
2019-02-26T10:44:27.487Z,54.85
2019-02-26T10:45:27.484Z,54.75
2019-02-26T10:46:29.402Z,54.27
2019-02-26T10:47:32.755Z,53.80
2019-02-26T10:48:28.077Z,54.27
2019-02-26T10:49:28.672Z,54.18
2019-02-26T10:52:21.633Z,52.94
2019-02-26T10:54:40.133Z,52.96
2019-02-26T10:55:38.623Z,52.77
2019-02-26T10:56:57.426Z,51.62
2019-02-26T10:57:36.225Z,51.81
2019-02-26T11:00:10.949Z,51.43
2019-02-26T11:01:10.726Z,51.62
2019-02-26T11:02:10.727Z,51.46
2019-02-26T11:03:14.917Z,52.03
2019-02-26T11:04:17.226Z,51.27
2019-02-26T11:05:32.219Z,51.56
2019-02-26T11:06:15.921Z,51.27
2019-02-26T11:07:46.721Z,50.91
2019-02-26T11:08:34.937Z,49.48
2019-02-26T11:09:14.314Z,49.48
2019-02-26T11:10:18.121Z,49.57
2019-02-26T11:11:13.053Z,49.57
2019-02-26T11:13:45.729Z,48.71
2019-02-26T11:14:44.312Z,48.90
